Airfield :
LOGIN :

Register | Disclaimer

   EN    FR    IT 

 










Legend :    VFR   Marginal VFR   IFR   Intensive IFR   Very Intensive IFR
Visi :
Ceiling :
>= 8 km
>= 3000ft
5 to 8 km
1000 to 3000 ft
1500m to 5 km
500 to 1000 ft
800 to 1500m
200 to 500 ft
< 800m
< 200 ft
Symbols :   Thunderstorms  Fog  Heavy snow  Heavy precipitations  Wind > 20 kt
SIGMETs :     Misc.  Thunderstorms  Icing  Turbulence  Mountain Waves  Volcanic Ashes







- Airport Elevation : 20 ft


EBFN - Koksijde

CURRENT METAR :
  • 212155Z AUTO 29004KT 9000 BKN066/// OVC120/// 13/12 Q1012 BLU

EXPIRED METARs :
  • 212125Z AUTO 28003KT 9999 OVC110/// 14/12 Q1012 BLU
  • 212055Z AUTO 31003KT 9999 SCT058/// BKN098/// BKN100/// 14/12 Q1012 BLU
  • 212025Z AUTO 36006KT 9999 FEW058/// BKN100/// 14/12 Q1012 BLU
  • 211955Z AUTO 34005KT 9999 OVC098/// 14/12 Q1012 BLU
  • 211925Z AUTO 32005KT 9999 SCT100/// 13/12 Q1012 BLU

TAF TAF EBFN
Valid from the 21 at 19:00 until the 22 at 07:00 UTC


211541Z 2119/2207 03010KT 9 F0
TEMPO 2119/2202 6 - S0
PROB40
TEMPO 2119/2201 VRB15G25KT 4 T F0 BKN014
PROB30
TEMPO 2119/2201 VRB20G30KT 2 / S0 BKN012
BECMG 2201/2203 33006KT 6
BECMG 2202/2204 4 B
TEMPO 2202/2207 VRB03KT 2 B S0
No reported NOTAMs for that airfield.



MET'MAP, your aeronautical weather chart ! - Copyright ORBIFLY December 2007 - Disclaimer

ORBIFLY MET'MAP TEAM :

Programming & Development : Alexandra Zaïnal
Concept & Development : Baudouin d'Aumeries
Co-Development & Prog : Marc-Olivier Méhu
Technical & hardware support : Manuel Goepfert

Contact : metmap@orbifly.com




SOURCES & CREDITS :

   NOAA